Time;durP1;ratioP1;P1;durP2;ratioP2;P2;SDS_P1;SDS_P2;PMS_P1;PMS_P2;Temp;Humidity;BMP_temperature;BMP_pressure;BME280_temperature;BME280_humidity;BME280_pressure;Samples;Min_cycle;Max_cycle;Signal;HPM_P1;HPM_P2
2022/02/19 00:01:50;;;;;;;83.18;45.95;;;;;;;11.39;66.02;100567.28;5105680;28;20491;-67
2022/02/19 00:04:34;;;;;;;71.00;36.92;;;;;;;11.39;65.82;100567.28;5115259;28;20426;-67
2022/02/19 00:07:19;;;;;;;59.20;35.58;;;;;;;11.23;66.48;100575.16;5115265;28;20036;-67
2022/02/19 00:10:04;;;;;;;;;;;;;;;11.27;66.89;100569.88;5130829;27;20039;-67
2022/02/19 00:12:49;;;;;;;93.47;50.38;;;;;;;11.21;66.54;100569.25;5134970;27;19911;-69
2022/02/19 00:15:34;;;;;;;64.68;36.67;;;;;;;11.19;67.10;100581.56;5135337;27;20043;-67
2022/02/19 00:18:19;;;;;;;;;;;;;;;11.29;66.65;100578.50;5136005;27;20047;-68
2022/02/19 00:21:04;;;;;;;93.30;48.30;;;;;;;11.30;66.53;100578.19;5123632;27;19915;-67
2022/02/19 00:23:49;;;;;;;87.55;48.65;;;;;;;11.20;66.92;100580.44;5128238;27;20047;-67
2022/02/19 00:26:34;;;;;;;71.88;39.00;;;;;;;11.13;67.03;100573.56;5135384;27;20039;-66
2022/02/19 00:29:19;;;;;;;91.85;48.92;;;;;;;11.10;67.24;100579.66;5134449;27;20039;-67
2022/02/19 00:32:05;;;;;;;67.15;36.25;;;;;;;11.24;67.22;100573.22;5135316;27;20062;-68
2022/02/19 00:34:51;;;;;;;86.00;47.75;;;;;;;11.22;67.22;100589.91;5133673;27;20043;-68
2022/02/19 00:37:35;;;;;;;83.68;46.85;;;;;;;11.22;66.97;100568.13;5135449;27;20455;-67
2022/02/19 00:40:21;;;;;;;63.58;36.65;;;;;;;11.27;67.11;100573.41;5125936;27;20051;-67
2022/02/19 00:43:05;;;;;;;;;;;;;;;11.13;67.22;100576.28;5115096;28;20040;-67
2022/02/19 00:45:50;;;;;;;86.22;45.90;;;;;;;11.26;67.04;100565.53;5119121;27;19911;-67
2022/02/19 00:48:35;;;;;;;86.38;47.08;;;;;;;11.19;67.33;100573.41;5135001;27;20039;-68
2022/02/19 00:51:20;;;;;;;62.42;35.15;;;;;;;11.13;67.46;100573.56;5135081;27;20391;-68
2022/02/19 00:54:05;;;;;;;64.40;35.67;;;;;;;11.17;67.42;100570.22;5134980;27;20054;-69
2022/02/19 00:56:50;;;;;;;70.57;36.92;;;;;;;11.05;67.92;100574.38;5123823;27;20415;-67
2022/02/19 00:59:35;;;;;;;;;;;;;;;11.14;67.59;100577.88;5114671;28;20394;-69
2022/02/19 01:02:19;;;;;;;86.40;48.50;;;;;;;11.19;67.58;100567.94;5131678;27;19912;-68
2022/02/19 01:05:24;;;;;;;85.32;47.60;;;;;;;11.04;67.90;100556.44;5134879;27;20402;-67
2022/02/19 01:08:09;;;;;;;71.50;38.53;;;;;;;11.05;67.77;100571.66;5126006;27;20046;-66
2022/02/19 01:10:53;;;;;;;69.47;39.35;;;;;;;10.96;68.25;100564.63;5128622;27;20043;-67
2022/02/19 01:13:38;;;;;;;70.82;39.33;;;;;;;11.01;68.13;100575.34;5134667;27;20487;-66
2022/02/19 01:16:23;;;;;;;;;;;;;;;11.00;68.13;100566.38;5134984;27;20034;-67
2022/02/19 01:19:08;;;;;;;89.10;48.80;;;;;;;10.97;68.23;100567.00;5122335;27;20310;-67
2022/02/19 01:21:53;;;;;;;67.68;36.92;;;;;;;11.08;68.18;100576.44;5114682;28;20517;-69
2022/02/19 01:24:38;;;;;;;69.68;35.65;;;;;;;11.19;67.91;100573.41;5113736;28;20423;-67
2022/02/19 01:27:24;;;;;;;86.05;48.20;;;;;;;11.08;68.17;100568.28;5119985;27;20039;-67
2022/02/19 01:30:09;;;;;;;73.38;40.20;;;;;;;11.14;67.97;100558.84;5122941;27;20031;-66
2022/02/19 01:32:54;;;;;;;74.72;37.53;;;;;;;11.01;68.01;100569.91;5134355;27;20039;-67
2022/02/19 01:35:39;;;;;;;71.82;39.38;;;;;;;11.02;68.38;100569.56;5134222;27;20035;-66
2022/02/19 01:38:24;;;;;;;72.80;40.10;;;;;;;10.92;68.73;100566.41;5130404;27;20043;-67
2022/02/19 01:41:10;;;;;;;88.95;50.55;;;;;;;10.90;68.72;100569.44;5133816;27;20038;-67
2022/02/19 01:43:55;;;;;;;76.57;40.20;;;;;;;10.87;68.94;100564.63;5133776;27;20043;-66
2022/02/19 01:46:41;;;;;;;68.47;37.15;;;;;;;10.91;68.98;100568.31;5133657;27;20043;-67
2022/02/19 01:49:26;;;;;;;94.13;51.70;;;;;;;10.93;68.95;100565.25;5133435;27;20027;-67
2022/02/19 01:52:15;;;;;;;100.85;51.78;;;;;;;10.99;68.99;100562.06;5133789;27;20047;-67
2022/02/19 01:54:59;;;;;;;104.07;55.13;;;;;;;10.91;69.21;100559.34;5133495;27;20043;-67
2022/02/19 01:58:02;;;;;;;95.57;51.33;;;;;;;10.94;69.22;100559.50;5125851;27;20036;-67
2022/02/19 02:01:06;;;;;;;89.05;52.40;;;;;;;10.91;69.11;100554.72;5125853;27;20415;-67
2022/02/19 02:04:10;;;;;;;93.28;53.50;;;;;;;10.85;69.75;100556.00;5120959;27;20043;-66
2022/02/19 02:06:56;;;;;;;96.32;53.45;;;;;;;10.87;69.52;100544.78;5132150;27;20039;-68
2022/02/19 02:09:42;;;;;;;98.70;55.38;;;;;;;11.00;69.09;100541.09;5125382;27;20043;-67
2022/02/19 02:12:27;;;;;;;72.93;39.88;;;;;;;11.05;68.85;100536.28;5133205;27;20047;-69
2022/02/19 02:15:26;;;;;;;82.60;47.53;;;;;;;11.00;69.56;100533.72;5122094;27;20040;-67
2022/02/19 02:18:29;;;;;;;90.28;49.25;;;;;;;11.13;68.47;100523.78;5113563;28;20403;-68
2022/02/19 02:21:15;;;;;;;91.85;49.75;;;;;;;11.12;68.85;100522.19;5133488;27;20418;-67
2022/02/19 02:24:01;;;;;;;68.18;39.90;;;;;;;10.92;69.36;100512.75;5133579;27;20035;-67
2022/02/19 02:26:46;;;;;;;89.05;48.47;;;;;;;10.93;69.43;100517.09;5131733;27;20039;-68
2022/02/19 02:29:32;;;;;;;91.22;49.58;;;;;;;10.86;69.66;100499.66;5133142;27;20035;-69
2022/02/19 02:32:18;;;;;;;94.00;52.28;;;;;;;10.97;69.75;100506.38;5133288;27;20470;-67
2022/02/19 02:35:04;;;;;;;95.18;52.97;;;;;;;11.06;68.56;100496.28;5132900;27;20479;-68
2022/02/19 02:37:55;;;;;;;97.15;53.65;;;;;;;11.17;68.23;100496.72;5133065;27;20039;-66
2022/02/19 02:40:39;;;;;;;68.65;39.00;;;;;;;11.22;68.20;100500.09;5125236;28;20035;-68
2022/02/19 02:43:25;;;;;;;64.90;38.00;;;;;;;11.28;67.49;100508.84;5133176;28;20039;-67
2022/02/19 02:46:09;;;;;;;72.30;43.13;;;;;;;11.28;67.71;100515.09;5130381;28;20507;-67
2022/02/19 02:48:54;;;;;;;69.57;39.50;;;;;;;11.32;68.20;100512.53;5113395;28;20043;-68
2022/02/19 02:51:39;;;;;;;72.95;39.45;;;;;;;11.39;67.17;100513.63;5113023;28;20035;-68
2022/02/19 02:54:24;;;;;;;72.88;40.17;;;;;;;11.38;66.97;100506.56;5113122;28;20051;-68
2022/02/19 02:57:10;;;;;;;86.95;47.47;;;;;;;11.28;67.85;100509.66;5122935;27;20055;-68
2022/02/19 02:59:55;;;;;;;88.43;49.80;;;;;;;11.24;68.29;100521.50;5137905;27;20035;-68
2022/02/19 03:02:40;;;;;;;;;;;;;;;11.01;69.25;100524.44;5138380;27;20038;-68
2022/02/19 03:05:25;;;;;;;69.75;37.40;;;;;;;10.95;69.50;100525.75;5137485;27;20370;-68
2022/02/19 03:08:10;;;;;;;64.10;37.83;;;;;;;11.00;69.50;100516.59;5122206;27;20039;-67
2022/02/19 03:10:55;;;;;;;72.55;38.28;;;;;;;10.98;69.66;100516.91;5116997;28;20487;-67
2022/02/19 03:13:40;;;;;;;71.00;38.28;;;;;;;11.02;69.45;100511.66;5116369;28;20036;-67
2022/02/19 03:16:27;;;;;;;88.53;50.33;;;;;;;10.84;70.07;100515.50;5116241;28;20043;-69
2022/02/19 03:19:12;;;;;;;69.72;40.58;;;;;;;10.79;70.44;100521.09;5116509;28;20036;-67
2022/02/19 03:21:57;;;;;;;;;;;;;;;10.84;70.29;100524.47;5116754;28;20040;-69
2022/02/19 03:24:42;;;;;;;90.28;47.58;;;;;;;10.69;70.61;100530.38;5115898;28;19912;-67
2022/02/19 03:27:28;;;;;;;89.90;50.58;;;;;;;10.63;71.04;100528.94;5119814;27;20449;-68
2022/02/19 03:30:17;;;;;;;99.90;54.22;;;;;;;10.62;71.47;100521.91;5136873;27;20105;-67
2022/02/19 03:33:02;;;;;;;90.18;51.80;;;;;;;10.63;71.34;100524.31;5136438;27;20479;-67
2022/02/19 03:35:47;;;;;;;69.75;38.03;;;;;;;10.73;71.27;100525.91;5136383;27;20515;-67
2022/02/19 03:38:32;;;;;;;98.63;53.00;;;;;;;10.72;71.13;100521.56;5135824;27;20039;-67
2022/02/19 03:41:22;;;;;;;97.38;51.97;;;;;;;10.67;71.20;100529.91;5136254;27;20503;-67
2022/02/19 03:44:07;;;;;;;74.90;40.58;;;;;;;10.63;71.26;100524.31;5135998;27;20415;-66
2022/02/19 03:46:57;;;;;;;99.32;53.33;;;;;;;10.60;71.52;100524.16;5136322;27;20047;-67
2022/02/19 03:49:48;;;;;;;89.07;49.75;;;;;;;10.67;71.22;100535.34;5119398;27;20044;-67
2022/02/19 03:52:35;;;;;;;67.15;37.97;;;;;;;10.64;71.16;100531.34;5115737;28;20039;-69
2022/02/19 03:55:21;;;;;;;89.03;51.00;;;;;;;10.67;71.19;100540.78;5115440;28;20043;-67
2022/02/19 03:58:09;;;;;;;94.75;51.13;;;;;;;10.65;71.04;100535.69;5115948;27;20040;-67
2022/02/19 04:00:56;;;;;;;93.38;52.42;;;;;;;10.66;71.20;100539.19;5115282;28;20043;-67
2022/02/19 04:03:41;;;;;;;80.95;42.88;;;;;;;10.62;71.15;100540.94;5115238;28;20040;-67
2022/02/19 04:06:28;;;;;;;90.13;50.75;;;;;;;10.58;71.34;100565.25;5115255;28;20055;-68
2022/02/19 04:09:14;;;;;;;99.68;52.92;;;;;;;10.63;70.93;100545.25;5121043;27;20035;-67
2022/02/19 04:12:04;;;;;;;92.47;52.70;;;;;;;10.57;71.34;100550.06;5135836;27;20035;-66
2022/02/19 04:14:53;;;;;;;94.40;51.42;;;;;;;10.57;71.42;100547.34;5135380;27;20486;-67
2022/02/19 04:17:39;;;;;;;89.85;50.72;;;;;;;10.61;71.43;100550.25;5135594;27;20043;-67
2022/02/19 04:20:26;;;;;;;94.45;50.28;;;;;;;10.54;71.69;100556.13;5121856;27;20040;-67
2022/02/19 04:23:11;;;;;;;70.57;38.70;;;;;;;10.59;71.56;100541.59;5115611;28;20039;-67
2022/02/19 04:25:55;;;;;;;67.93;37.17;;;;;;;10.71;71.06;100545.28;5115137;28;20043;-67
2022/02/19 04:28:47;;;;;;;89.20;52.65;;;;;;;10.61;71.30;100544.78;5114950;28;20039;-68
2022/02/19 04:31:40;;;;;;;89.15;49.58;;;;;;;10.58;71.54;100548.13;5135648;27;20039;-67
2022/02/19 04:34:31;;;;;;;93.50;50.33;;;;;;;10.62;71.65;100538.22;5135200;27;20046;-67
2022/02/19 04:37:16;;;;;;;70.13;39.30;;;;;;;10.72;71.44;100541.41;5133634;27;20039;-65
2022/02/19 04:40:01;;;;;;;;;;;;;;;10.67;71.51;100544.28;5128474;27;20055;-67
2022/02/19 04:42:52;;;;;;;93.80;49.95;;;;;;;10.57;71.70;100558.22;5128824;27;20278;-67
2022/02/19 04:45:44;;;;;;;93.55;51.30;;;;;;;10.49;72.25;100563.66;5135233;27;20027;-67
2022/02/19 04:48:32;;;;;;;92.55;49.05;;;;;;;10.53;72.35;100559.16;5135889;27;20039;-67
2022/02/19 04:51:17;;;;;;;87.50;49.63;;;;;;;10.55;71.60;100555.03;5132189;27;20039;-67
2022/02/19 04:54:03;;;;;;;100.40;55.15;;;;;;;10.60;71.79;100559.50;5135027;27;20043;-67
2022/02/19 04:56:51;;;;;;;85.13;50.20;;;;;;;10.64;71.13;100544.16;5134865;27;20514;-67
2022/02/19 04:59:36;;;;;;;92.18;50.75;;;;;;;10.72;71.30;100563.19;5131365;27;20079;-67
2022/02/19 05:02:22;;;;;;;88.10;50.05;;;;;;;10.67;71.26;100560.63;5116166;27;20503;-68
2022/02/19 05:05:10;;;;;;;87.20;51.08;;;;;;;10.70;71.06;100564.63;5129725;27;20035;-67
2022/02/19 05:07:55;;;;;;;;;;;;;;;10.75;70.57;100569.09;5132396;27;20039;-67
2022/02/19 05:10:40;;;;;;;99.80;53.20;;;;;;;10.71;70.77;100571.69;5126131;27;19911;-67
2022/02/19 05:13:25;;;;;;;89.07;49.47;;;;;;;10.81;70.19;100560.47;5130602;27;20039;-66
2022/02/19 05:16:10;;;;;;;71.78;40.83;;;;;;;10.79;70.19;100562.72;5127582;27;20415;-67
2022/02/19 05:18:59;;;;;;;88.03;50.47;;;;;;;10.70;70.38;100559.19;5127685;27;20035;-66
2022/02/19 05:21:45;;;;;;;87.25;51.15;;;;;;;10.70;70.78;100559.19;5126221;27;20043;-67
2022/02/19 05:24:33;;;;;;;92.18;53.30;;;;;;;10.77;70.28;100564.94;5134579;27;20039;-66
2022/02/19 05:27:27;;;;;;;90.57;52.83;;;;;;;10.73;70.28;100569.41;5135064;27;20039;-65
2022/02/19 05:30:15;;;;;;;83.88;49.55;;;;;;;10.88;69.57;100571.66;5135012;27;20264;-65
2022/02/19 05:33:34;;;;;;;87.65;48.95;;;;;;;10.75;70.67;100579.97;5137406;27;20046;-66
2022/02/19 05:36:19;;;;;;;;;;;;;;;10.72;71.20;100578.69;5134640;27;20047;-66
2022/02/19 05:39:05;;;;;;;91.18;51.80;;;;;;;10.77;70.67;100583.19;5135543;27;19915;-67
2022/02/19 05:41:53;;;;;;;95.68;49.88;;;;;;;10.67;71.14;100579.66;5133681;27;20410;-66
2022/02/19 05:44:43;;;;;;;80.70;47.70;;;;;;;10.70;70.99;100570.06;5114759;28;20032;-66
2022/02/19 05:47:28;;;;;;;67.75;37.78;;;;;;;10.62;71.42;100582.53;5118306;27;20643;-66
2022/02/19 05:50:38;;;;;;;92.78;49.15;;;;;;;10.59;71.77;100585.09;5132918;27;20031;-65
2022/02/19 05:53:50;;;;;;;93.25;51.13;;;;;;;10.64;71.66;100583.03;5127681;27;20590;-65
2022/02/19 05:56:35;;;;;;;82.57;48.78;;;;;;;10.65;71.60;100581.09;5121761;27;20422;-66
2022/02/19 05:59:20;;;;;;;64.18;37.22;;;;;;;10.72;71.71;100578.69;5115724;28;20051;-66
2022/02/19 06:02:05;;;;;;;;;;;;;;;10.71;71.37;100566.25;5113524;28;20035;-65
2022/02/19 06:04:49;;;;;;;89.25;49.53;;;;;;;10.66;71.05;100580.00;5112783;28;19916;-66
2022/02/19 06:07:34;;;;;;;;;;;;;;;10.73;70.67;100572.13;5117168;27;20047;-65
2022/02/19 06:10:20;;;;;;;98.18;48.80;;;;;;;10.81;69.85;100567.84;5134103;27;20290;-66
2022/02/19 06:13:05;;;;;;;93.22;50.63;;;;;;;10.69;70.70;100574.69;5133545;27;20047;-66
2022/02/19 06:15:58;;;;;;;86.57;49.88;;;;;;;10.67;71.36;100576.94;5133758;27;20043;-65
2022/02/19 06:18:56;;;;;;;90.15;50.30;;;;;;;10.56;71.86;100585.75;5134069;27;20495;-66
2022/02/19 06:21:42;;;;;;;74.20;43.00;;;;;;;10.37;72.55;100588.72;5123677;27;20034;-66
2022/02/19 06:24:26;;;;;;;73.18;41.38;;;;;;;10.33;72.67;100581.53;5131561;27;20039;-65
2022/02/19 06:27:14;;;;;;;98.53;53.85;;;;;;;10.38;72.71;100584.09;5124557;27;20047;-65
2022/02/19 06:30:13;;;;;;;92.05;53.47;;;;;;;10.51;71.77;100583.16;5133184;27;20039;-65
2022/02/19 06:33:08;;;;;;;70.33;39.07;;;;;;;10.68;70.48;100588.63;5126739;27;20047;-65
2022/02/19 06:35:54;;;;;;;90.80;50.15;;;;;;;10.55;70.88;100595.81;5130570;27;20047;-66
2022/02/19 06:38:41;;;;;;;95.80;50.08;;;;;;;10.56;71.44;100607.50;5131676;27;20035;-65
2022/02/19 06:41:28;;;;;;;86.55;49.10;;;;;;;10.67;71.61;100611.47;5133301;27;20043;-67
2022/02/19 06:44:24;;;;;;;89.15;48.30;;;;;;;10.67;71.19;100608.75;5133029;28;20039;-66
2022/02/19 06:47:12;;;;;;;86.70;50.40;;;;;;;10.73;71.38;100612.94;5132295;28;20039;-65
2022/02/19 06:49:57;;;;;;;72.68;41.05;;;;;;;10.77;71.20;100622.06;5133160;28;20035;-66
2022/02/19 06:52:42;;;;;;;93.95;52.42;;;;;;;10.72;70.39;100624.94;5112524;28;20395;-66
2022/02/19 06:55:28;;;;;;;85.28;48.25;;;;;;;10.71;70.40;100636.94;5125349;28;20418;-66
2022/02/19 06:58:14;;;;;;;93.35;50.08;;;;;;;10.68;70.45;100634.84;5126939;28;20467;-67
2022/02/19 07:01:07;;;;;;;85.55;47.28;;;;;;;10.62;70.64;100627.94;5131144;28;20043;-66
2022/02/19 07:03:54;;;;;;;81.55;44.83;;;;;;;10.70;70.95;100632.63;5129511;28;20035;-64
2022/02/19 07:06:58;;;;;;;;;;;;;;;10.71;70.98;100634.22;5130451;28;20043;-65
2022/02/19 07:09:44;;;;;;;83.70;48.92;;;;;;;10.60;71.66;100641.88;5131552;28;19911;-65
2022/02/19 07:12:30;;;;;;;87.93;48.28;;;;;;;10.61;71.56;100637.25;5128615;28;20035;-65
2022/02/19 07:15:20;;;;;;;66.88;38.33;;;;;;;10.61;71.65;100645.41;5130082;28;20035;-65
2022/02/19 07:18:21;;;;;;;85.10;48.42;;;;;;;10.38;72.48;100643.88;5129043;28;20487;-66
2022/02/19 07:21:26;;;;;;;62.83;35.30;;;;;;;10.25;73.00;100649.13;5131235;28;20039;-65
2022/02/19 07:24:12;;;;;;;61.35;34.45;;;;;;;10.39;72.95;100649.03;5127934;28;20047;-65
2022/02/19 07:26:58;;;;;;;77.03;43.88;;;;;;;10.49;72.75;100661.50;5125631;28;20047;-66
2022/02/19 07:29:45;;;;;;;79.88;45.15;;;;;;;10.58;72.55;100667.78;5129715;28;20559;-66
2022/02/19 07:32:30;;;;;;;63.65;37.90;;;;;;;10.59;72.00;100672.09;5129406;28;20031;-66
2022/02/19 07:35:20;;;;;;;79.20;44.97;;;;;;;10.68;71.70;100675.63;5118684;27;20027;-66
2022/02/19 07:38:05;;;;;;;82.57;47.72;;;;;;;10.56;72.40;100668.09;5126044;28;20047;-67
2022/02/19 07:40:50;;;;;;;67.32;39.97;;;;;;;10.52;72.84;100677.19;5132162;28;20039;-67
2022/02/19 07:43:38;;;;;;;86.95;48.70;;;;;;;10.48;73.25;100671.59;5130984;27;20043;-66
2022/02/19 07:46:40;;;;;;;88.47;51.58;;;;;;;10.54;73.28;100677.69;5136599;27;20043;-66
2022/02/19 07:59:42;;;;;;;102.80;55.95;;;;;;;10.94;71.77;100695.53;5136755;27;20042;-69
2022/02/19 08:02:27;;;;;;;81.72;45.33;;;;;;;11.07;71.64;100691.06;5135529;27;20039;-69
2022/02/19 08:05:12;;;;;;;109.35;57.10;;;;;;;11.15;71.56;100701.16;5125021;27;20047;-69
2022/02/19 08:08:03;;;;;;;104.20;53.60;;;;;;;11.07;72.14;100702.75;5115441;28;20047;-69
2022/02/19 08:10:49;;;;;;;110.78;58.90;;;;;;;11.36;71.47;100704.06;5135045;27;20027;-69
2022/02/19 08:13:34;;;;;;;82.45;44.60;;;;;;;11.37;71.33;100703.75;5135816;27;20031;-69
2022/02/19 08:16:19;;;;;;;85.47;44.67;;;;;;;11.61;70.81;100710.59;5132288;27;20043;-69
2022/02/19 08:19:04;;;;;;;102.72;55.08;;;;;;;11.91;70.15;100718.59;5136576;27;20035;-69
2022/02/19 08:21:50;;;;;;;91.10;46.47;;;;;;;11.72;69.80;100711.88;5127900;27;20043;-69
2022/02/19 08:24:35;;;;;;;100.85;55.25;;;;;;;11.53;71.15;100717.63;5133740;27;20035;-69
2022/02/19 08:27:20;;;;;;;84.85;43.35;;;;;;;11.45;71.32;100726.63;5129361;27;20039;-69
2022/02/19 08:30:06;;;;;;;72.88;42.13;;;;;;;11.96;70.03;100721.16;5132039;27;20430;-69
2022/02/19 08:32:51;;;;;;;104.57;58.80;;;;;;;12.49;67.90;100719.88;5135700;27;20035;-69
2022/02/19 08:35:39;;;;;;;77.82;42.58;;;;;;;12.48;66.89;100726.44;5139242;27;20039;-69
2022/02/19 08:38:23;;;;;;;100.35;53.92;;;;;;;12.00;68.72;100724.81;5133792;27;20039;-69
2022/02/19 08:41:09;;;;;;;94.78;53.53;;;;;;;11.95;69.53;100724.19;5134959;27;20039;-69
2022/02/19 08:43:53;;;;;;;83.95;43.38;;;;;;;11.75;70.20;100725.69;5134743;27;20043;-69
2022/02/19 08:46:38;;;;;;;103.93;56.20;;;;;;;11.50;71.79;100740.09;5132632;27;20031;-69
2022/02/19 08:49:24;;;;;;;87.95;44.03;;;;;;;11.50;71.85;100732.72;5132468;27;20042;-69
2022/02/19 08:52:09;;;;;;;115.03;54.33;;;;;;;11.63;71.38;100732.88;5130656;27;20031;-69
2022/02/19 08:54:54;;;;;;;80.22;43.67;;;;;;;11.73;71.16;100727.94;5120274;27;20039;-69
2022/02/19 08:57:39;;;;;;;101.82;44.45;;;;;;;12.03;68.82;100738.94;5134921;27;20043;-68
2022/02/19 09:00:25;;;;;;;136.50;58.70;;;;;;;12.09;69.12;100741.16;5134798;27;20477;-69
2022/02/19 09:03:10;;;;;;;100.28;54.88;;;;;;;12.48;68.32;100736.56;5138134;27;20039;-69
2022/02/19 09:05:55;;;;;;;80.18;45.10;;;;;;;12.50;67.60;100743.25;5140549;27;20419;-69
2022/02/19 09:08:39;;;;;;;78.82;43.70;;;;;;;12.52;67.10;100753.84;5130143;27;20403;-68
2022/02/19 09:11:25;;;;;;;110.07;56.70;;;;;;;12.32;68.12;100755.38;5132091;27;20410;-68
2022/02/19 09:14:10;;;;;;;76.25;41.03;;;;;;;12.58;67.38;100758.81;5136299;27;20039;-76
2022/02/19 09:16:55;;;;;;;102.35;52.65;;;;;;;12.90;65.98;100764.78;5128375;27;20043;-75
2022/02/19 09:19:40;;;;;;;77.32;41.67;;;;;;;12.63;67.59;100771.47;5134240;27;20035;-75
2022/02/19 09:22:25;;;;;;;72.25;42.13;;;;;;;12.61;66.73;100773.72;5132090;27;20043;-71
2022/02/19 09:25:11;;;;;;;591.58;80.47;;;;;;;12.95;66.79;100772.78;5123764;27;20383;-72
2022/02/19 09:27:56;;;;;;;223.88;38.97;;;;;;;13.55;63.56;100775.13;5133519;27;20039;-67
2022/02/19 09:30:41;;;;;;;469.75;79.40;;;;;;;13.56;64.32;100776.72;5127957;27;20034;-64
2022/02/19 09:33:26;;;;;;;71.78;38.25;;;;;;;13.76;62.39;100775.13;5129319;27;20042;-72
2022/02/19 09:36:12;;;;;;;112.03;53.72;;;;;;;13.53;63.42;100778.19;5127630;27;20408;-71
2022/02/19 09:38:57;;;;;;;;;;;;;;;13.45;63.58;100781.78;5132215;27;20474;-72
2022/02/19 09:41:43;;;;;;;95.90;56.75;;;;;;;13.71;62.46;100787.84;5119565;27;20423;-74
2022/02/19 09:44:28;;;;;;;90.95;51.78;;;;;;;12.99;65.59;100784.63;5124593;27;20039;-67
2022/02/19 09:47:15;;;;;;;80.88;43.05;;;;;;;12.91;66.50;100780.78;5117778;27;20036;-67
2022/02/19 09:50:00;;;;;;;94.15;48.97;;;;;;;13.15;65.08;100789.22;5132277;27;20035;-67
2022/02/19 09:52:46;;;;;;;;;;;;;;;12.65;67.10;100786.38;5125115;27;20039;-67
2022/02/19 09:55:33;;;;;;;;;;;;;;;12.56;68.40;100799.25;5132044;27;19915;-67
2022/02/19 09:58:19;;;;;;;99.18;53.35;;;;;;;12.66;68.09;100792.63;5133283;27;19912;-67
2022/02/19 10:01:21;;;;;;;99.20;55.63;;;;;;;12.30;69.48;100798.50;5129433;27;20447;-67
2022/02/19 10:04:06;;;;;;;95.38;53.25;;;;;;;12.48;69.22;100793.81;5128771;27;20039;-67
2022/02/19 10:06:52;;;;;;;;;;;;;;;12.43;68.95;100803.78;5131368;27;20051;-68
2022/02/19 10:09:43;;;;;;;103.53;54.65;;;;;;;12.17;69.66;100813.16;5126080;27;19915;-67
2022/02/19 10:12:45;;;;;;;97.85;54.78;;;;;;;12.00;70.74;100816.69;5131342;27;20027;-68
2022/02/19 10:15:47;;;;;;;106.28;55.97;;;;;;;12.14;70.29;100808.34;5129793;27;20043;-67
2022/02/19 10:18:35;;;;;;;104.25;57.85;;;;;;;11.29;73.31;100816.13;5133114;27;20054;-67
2022/02/19 10:21:24;;;;;;;113.97;60.45;;;;;;;11.31;73.66;100818.53;5126716;27;20410;-68
2022/02/19 10:24:09;;;;;;;109.97;58.67;;;;;;;10.96;74.82;100809.50;5123354;27;20040;-68
2022/02/19 10:26:56;;;;;;;110.22;61.47;;;;;;;11.28;73.13;100802.84;5119842;27;20031;-70
2022/02/19 10:29:49;;;;;;;111.13;58.22;;;;;;;11.09;73.54;100809.38;5117181;27;20038;-70
2022/02/19 10:32:50;;;;;;;112.88;58.53;;;;;;;11.05;74.10;100808.41;5123644;27;20035;-71
2022/02/19 10:35:38;;;;;;;120.82;63.10;;;;;;;11.37;74.17;100811.84;5128304;27;20410;-70
2022/02/19 10:38:24;;;;;;;108.43;59.17;;;;;;;11.43;72.70;100816.00;5124128;27;20035;-71
2022/02/19 10:41:10;;;;;;;114.82;60.78;;;;;;;11.15;73.14;100821.72;5125425;27;20028;-70
2022/02/19 10:43:55;;;;;;;116.75;58.90;;;;;;;11.11;73.20;100822.66;5115484;27;20035;-69
2022/02/19 10:46:40;;;;;;;90.78;47.00;;;;;;;11.00;74.07;100829.50;5126069;28;20039;-70
2022/02/19 10:49:27;;;;;;;85.95;47.65;;;;;;;11.24;73.05;100835.34;5124582;28;20039;-70
2022/02/19 10:52:12;;;;;;;116.20;63.55;;;;;;;11.12;73.14;100819.59;5126247;28;20040;-70
2022/02/19 10:55:19;;;;;;;112.05;60.60;;;;;;;11.23;73.19;100832.91;5127481;28;20036;-70
2022/02/19 10:58:07;;;;;;;116.88;61.15;;;;;;;11.19;73.13;100821.06;5124969;27;20043;-70
2022/02/19 11:00:52;;;;;;;112.65;63.58;;;;;;;11.08;73.10;100821.34;5123669;28;20043;-70
2022/02/19 11:03:40;;;;;;;;;;;;;;;11.23;73.36;100824.75;5123511;28;20398;-69
2022/02/19 11:06:25;;;;;;;125.82;63.00;;;;;;;11.34;72.57;100826.88;5119901;28;19915;-69
2022/02/19 11:09:12;;;;;;;91.22;48.08;;;;;;;11.73;71.35;100834.19;5124642;28;20039;-70
2022/02/19 11:11:59;;;;;;;111.70;61.58;;;;;;;11.88;70.72;100833.72;5125288;28;20031;-70
2022/02/19 11:14:44;;;;;;;113.45;61.70;;;;;;;11.80;71.00;100837.22;5121547;28;20035;-70
2022/02/19 11:17:30;;;;;;;87.32;47.80;;;;;;;11.58;71.49;100829.94;5121545;28;20039;-70
2022/02/19 11:20:16;;;;;;;121.13;61.80;;;;;;;11.74;71.64;100832.22;5110946;27;20046;-70
2022/02/19 11:23:02;;;;;;;133.93;63.35;;;;;;;11.67;72.21;100834.63;5130355;27;20051;-71
2022/02/19 11:25:48;;;;;;;122.20;63.72;;;;;;;11.58;72.38;100835.41;5130954;27;20035;-70
2022/02/19 11:28:37;;;;;;;116.00;63.60;;;;;;;11.46;72.87;100832.50;5123865;27;20034;-70
2022/02/19 11:31:27;;;;;;;118.10;61.47;;;;;;;11.44;72.77;100823.03;5129683;27;20031;-70
2022/02/19 11:34:17;;;;;;;111.15;64.13;;;;;;;11.42;72.86;100825.31;5127273;27;20410;-70
2022/02/19 11:37:13;;;;;;;110.45;61.47;;;;;;;11.68;72.46;100820.69;5122031;27;20043;-71
2022/02/19 11:40:04;;;;;;;117.30;62.60;;;;;;;11.52;73.08;100823.06;5131585;27;20494;-71
2022/02/19 11:42:51;;;;;;;114.88;63.33;;;;;;;11.69;72.08;100816.00;5129235;27;20043;-71
2022/02/19 11:45:42;;;;;;;112.80;62.70;;;;;;;11.80;72.17;100826.31;5132297;27;20035;-71
2022/02/19 11:48:28;;;;;;;121.72;62.00;;;;;;;11.78;71.37;100823.13;5135742;27;20498;-71
2022/02/19 11:51:17;;;;;;;111.80;60.78;;;;;;;11.69;72.35;100821.47;5128178;27;20418;-70
2022/02/19 11:54:02;;;;;;;113.45;61.92;;;;;;;11.73;72.26;100826.00;5134967;27;20486;-70
2022/02/19 11:56:48;;;;;;;88.63;48.45;;;;;;;11.72;72.39;100824.38;5121507;27;20039;-71
2022/02/19 11:59:47;;;;;;;127.53;65.18;;;;;;;11.89;71.68;100818.13;5135768;27;20043;-71
2022/02/19 12:02:33;;;;;;;117.75;63.35;;;;;;;11.61;72.55;100812.19;5129234;27;20491;-71
2022/02/19 12:05:22;;;;;;;119.07;67.18;;;;;;;11.80;72.47;100804.50;5131915;27;20491;-70
2022/02/19 12:08:07;;;;;;;119.30;66.82;;;;;;;12.09;71.60;100808.53;5124327;27;20035;-71
2022/02/19 12:11:06;;;;;;;92.43;51.08;;;;;;;11.79;72.37;100808.34;5129237;27;20039;-71
2022/02/19 12:13:55;;;;;;;116.38;64.75;;;;;;;11.78;72.31;100805.97;5111757;27;20410;-68
2022/02/19 12:16:44;;;;;;;121.78;61.92;;;;;;;11.80;72.41;100790.91;5119899;27;20031;-69
2022/02/19 12:19:51;;;;;;;114.32;60.72;;;;;;;11.96;71.57;100797.47;5127271;27;20035;-69
2022/02/19 12:22:49;;;;;;;119.22;62.42;;;;;;;11.93;71.75;100781.78;5128880;27;20066;-69
2022/02/19 12:25:56;;;;;;;108.05;60.15;;;;;;;12.11;72.19;100795.34;5132352;27;20043;-69
2022/02/19 12:28:42;;;;;;;111.60;62.60;;;;;;;12.08;71.29;100782.38;5132100;27;20035;-69
2022/02/19 12:31:31;;;;;;;114.97;61.83;;;;;;;12.20;71.22;100779.78;5132525;27;20041;-70
2022/02/19 12:34:16;;;;;;;114.65;62.17;;;;;;;12.29;70.57;100775.13;5132953;27;20039;-72
2022/02/19 12:37:12;;;;;;;86.00;47.67;;;;;;;12.33;70.37;100776.88;5117204;27;20042;-69
2022/02/19 12:40:00;;;;;;;117.18;62.90;;;;;;;12.36;70.25;100783.59;5128783;27;20035;-68
2022/02/19 12:42:47;;;;;;;113.78;61.47;;;;;;;11.93;71.13;100778.25;5121809;27;20039;-69
2022/02/19 12:45:34;;;;;;;122.60;62.53;;;;;;;11.99;70.50;100779.66;5120229;27;20047;-69
2022/02/19 12:48:19;;;;;;;115.10;61.22;;;;;;;11.80;71.00;100776.47;5131882;27;20043;-68
2022/02/19 12:51:03;;;;;;;81.20;47.05;;;;;;;11.92;70.40;100780.16;5131056;27;20035;-69
2022/02/19 12:53:49;;;;;;;101.82;59.25;;;;;;;12.06;69.95;100768.25;5122777;27;20035;-69
2022/02/19 12:56:42;;;;;;;108.03;57.95;;;;;;;11.82;70.83;100755.97;5134832;27;20043;-68